createdAt,value
2022-11-26T00:02:31.159Z,2.60
2022-11-26T00:04:59.577Z,2.70
2022-11-26T00:07:30.882Z,2.60
2022-11-26T00:09:59.823Z,2.70
2022-11-26T00:12:33.378Z,2.70
2022-11-26T00:15:31.207Z,2.63
2022-11-26T00:17:58.629Z,2.70
2022-11-26T00:20:31.281Z,2.80
2022-11-26T00:23:03.078Z,2.60
2022-11-26T00:25:44.937Z,2.80
2022-11-26T00:28:29.804Z,2.70
2022-11-26T00:31:01.578Z,2.70
2022-11-26T00:33:30.504Z,2.70
2022-11-26T00:36:19.815Z,2.70
2022-11-26T00:38:58.007Z,2.60
2022-11-26T00:41:32.990Z,2.67
2022-11-26T00:44:00.388Z,2.67
2022-11-26T00:46:27.751Z,2.63
2022-11-26T00:48:54.770Z,2.70
2022-11-26T00:51:28.079Z,2.70
2022-11-26T00:54:01.610Z,2.70
2022-11-26T00:56:35.108Z,2.70
2022-11-26T00:59:04.946Z,2.73
2022-11-26T01:01:32.819Z,2.70
2022-11-26T01:04:00.054Z,2.67
2022-11-26T01:06:34.987Z,2.73
2022-11-26T01:09:07.186Z,2.70
2022-11-26T01:11:34.729Z,2.73
2022-11-26T01:14:01.810Z,2.70
2022-11-26T01:16:39.196Z,2.70
2022-11-26T01:19:10.299Z,2.70
2022-11-26T01:21:37.528Z,2.57
2022-11-26T01:24:05.097Z,2.60
2022-11-26T01:26:43.900Z,2.70
2022-11-26T01:29:18.532Z,2.67
2022-11-26T01:31:46.651Z,2.70
2022-11-26T01:34:14.188Z,2.60
2022-11-26T01:36:42.507Z,2.60
2022-11-26T01:39:22.956Z,2.60
2022-11-26T01:42:29.092Z,2.60
2022-11-26T01:44:56.088Z,2.70
2022-11-26T01:47:29.944Z,2.70
2022-11-26T01:50:28.159Z,2.77
2022-11-26T01:53:06.945Z,2.70
2022-11-26T01:55:57.954Z,2.70
2022-11-26T01:58:40.004Z,2.70
2022-11-26T02:01:08.172Z,2.60
2022-11-26T02:03:48.868Z,2.77
2022-11-26T02:06:24.732Z,2.70
2022-11-26T02:08:52.805Z,2.70
2022-11-26T02:11:24.098Z,2.60
2022-11-26T02:13:59.493Z,2.70
2022-11-26T02:16:57.156Z,2.67
2022-11-26T02:20:43.916Z,2.70
2022-11-26T02:23:45.265Z,2.67
2022-11-26T02:27:19.509Z,2.70
2022-11-26T02:30:12.157Z,2.70
2022-11-26T02:33:06.535Z,2.70
2022-11-26T02:35:46.754Z,2.63
2022-11-26T02:38:24.502Z,2.73
2022-11-26T02:40:52.956Z,2.70
2022-11-26T02:43:20.673Z,2.70
2022-11-26T02:45:55.715Z,2.70
2022-11-26T02:48:34.741Z,2.70
2022-11-26T02:51:22.557Z,2.63
2022-11-26T02:53:52.762Z,2.70
2022-11-26T02:56:26.730Z,2.70
2022-11-26T02:58:56.220Z,2.67
2022-11-26T03:02:03.170Z,2.60
2022-11-26T03:04:41.331Z,2.70
2022-11-26T03:07:14.515Z,2.80
2022-11-26T03:09:58.977Z,2.70
2022-11-26T03:12:26.572Z,2.70
2022-11-26T03:14:54.338Z,2.60
2022-11-26T03:17:21.798Z,2.80
2022-11-26T03:19:48.834Z,2.70
2022-11-26T03:22:16.379Z,2.70
2022-11-26T03:24:43.891Z,2.70
2022-11-26T03:27:13.781Z,2.67
2022-11-26T03:29:40.782Z,2.80
2022-11-26T03:32:08.235Z,2.70
2022-11-26T03:34:35.389Z,2.70
2022-11-26T03:37:02.975Z,2.70
2022-11-26T03:39:30.407Z,2.70
2022-11-26T03:41:57.779Z,2.80
2022-11-26T03:44:24.767Z,2.67
2022-11-26T03:46:51.691Z,2.70
2022-11-26T03:49:18.672Z,2.70
2022-11-26T03:51:46.062Z,2.70
2022-11-26T03:54:13.067Z,2.60
2022-11-26T03:56:40.038Z,2.70
2022-11-26T03:59:07.513Z,2.63
2022-11-26T04:01:34.561Z,2.63
2022-11-26T04:04:01.601Z,2.67
2022-11-26T04:06:29.335Z,2.73
2022-11-26T04:08:56.758Z,2.70
2022-11-26T04:11:23.755Z,2.63
2022-11-26T04:13:51.163Z,2.70
2022-11-26T04:16:18.235Z,2.73
2022-11-26T04:18:45.675Z,2.73
2022-11-26T04:21:12.608Z,2.73
2022-11-26T04:23:39.780Z,2.73
2022-11-26T04:26:06.828Z,2.60
2022-11-26T04:28:33.957Z,2.63
2022-11-26T04:31:01.041Z,2.70
2022-11-26T04:33:28.076Z,2.70
2022-11-26T04:35:55.749Z,2.70
2022-11-26T04:38:25.950Z,2.70
2022-11-26T04:40:53.765Z,2.70
2022-11-26T04:43:20.834Z,2.60
2022-11-26T04:45:47.952Z,2.73
2022-11-26T04:48:15.126Z,2.70
2022-11-26T04:50:42.164Z,2.70
2022-11-26T04:53:09.317Z,2.70
2022-11-26T04:55:36.583Z,2.70
2022-11-26T04:58:03.867Z,2.73
2022-11-26T05:00:30.861Z,2.70
2022-11-26T05:02:57.901Z,2.63
2022-11-26T05:05:24.909Z,2.63
2022-11-26T05:07:51.961Z,2.67
2022-11-26T05:10:19.185Z,2.73
2022-11-26T05:12:46.135Z,2.73
2022-11-26T05:15:13.121Z,2.70
2022-11-26T05:17:40.117Z,2.70
2022-11-26T05:20:08.403Z,2.73
2022-11-26T05:22:35.353Z,2.73
2022-11-26T05:25:02.363Z,2.70
2022-11-26T05:27:29.426Z,2.70
2022-11-26T05:29:56.414Z,2.70
2022-11-26T05:32:23.358Z,2.63
2022-11-26T05:34:51.724Z,2.70
2022-11-26T05:37:25.682Z,2.70
2022-11-26T05:39:52.655Z,2.70
2022-11-26T05:42:19.622Z,2.67
2022-11-26T05:44:46.559Z,2.67
2022-11-26T05:47:13.657Z,2.67
2022-11-26T05:49:40.676Z,2.70
2022-11-26T05:52:07.747Z,2.70
2022-11-26T05:54:34.678Z,2.60
2022-11-26T05:57:01.691Z,2.70
2022-11-26T05:59:29.231Z,2.70
2022-11-26T06:01:56.844Z,2.63
2022-11-26T06:04:24.298Z,2.63
2022-11-26T06:06:51.750Z,2.60
2022-11-26T06:09:19.111Z,2.77
2022-11-26T06:11:46.099Z,2.70
2022-11-26T06:14:13.038Z,2.67
2022-11-26T06:16:40.249Z,2.70
2022-11-26T06:19:07.310Z,2.70
2022-11-26T06:21:34.746Z,2.70
2022-11-26T06:24:01.775Z,2.70
2022-11-26T06:26:28.863Z,2.70
2022-11-26T06:28:55.975Z,2.70
2022-11-26T06:31:23.501Z,2.70
2022-11-26T06:33:55.456Z,2.70
2022-11-26T06:36:23.399Z,2.67
2022-11-26T06:38:50.867Z,2.67
2022-11-26T06:41:18.017Z,2.70
2022-11-26T06:43:44.969Z,2.70
2022-11-26T06:46:12.889Z,2.70
2022-11-26T06:48:40.375Z,2.70
2022-11-26T06:51:15.051Z,2.60
2022-11-26T06:53:42.422Z,2.73
2022-11-26T06:56:18.732Z,2.60
2022-11-26T06:58:48.704Z,2.63
2022-11-26T07:01:24.171Z,2.60
2022-11-26T07:03:52.344Z,2.60
2022-11-26T07:06:28.868Z,2.70
2022-11-26T07:09:01.314Z,2.63
2022-11-26T07:11:28.511Z,2.60
2022-11-26T07:13:55.923Z,2.70
2022-11-26T07:16:24.017Z,2.70
2022-11-26T07:18:59.262Z,2.70
2022-11-26T07:21:30.540Z,2.63
2022-11-26T07:23:58.607Z,2.60
2022-11-26T07:26:26.083Z,2.70
2022-11-26T07:28:53.833Z,2.60
2022-11-26T07:31:23.352Z,2.70
2022-11-26T07:33:51.503Z,2.70
2022-11-26T07:36:28.962Z,2.70
2022-11-26T07:38:59.382Z,2.70
2022-11-26T07:41:28.761Z,2.70
2022-11-26T07:43:56.366Z,2.70
2022-11-26T07:46:25.934Z,2.67
2022-11-26T07:48:55.276Z,2.70
2022-11-26T07:51:31.977Z,2.70
2022-11-26T07:54:06.301Z,2.70
2022-11-26T07:56:34.365Z,2.60
2022-11-26T07:59:03.173Z,2.67
2022-11-26T08:01:31.460Z,2.70
2022-11-26T08:04:04.443Z,2.70
2022-11-26T08:06:33.370Z,2.60
2022-11-26T08:09:02.330Z,2.70
2022-11-26T08:11:33.543Z,2.77
2022-11-26T08:14:10.170Z,2.67
2022-11-26T08:16:37.363Z,2.70
2022-11-26T08:19:13.456Z,2.67
2022-11-26T08:21:41.036Z,2.70
2022-11-26T08:24:14.562Z,2.67
2022-11-26T08:26:44.317Z,2.60
2022-11-26T08:29:13.070Z,2.63
2022-11-26T08:31:46.063Z,2.63
2022-11-26T08:34:16.199Z,2.63
2022-11-26T08:36:44.857Z,2.70
2022-11-26T08:39:21.315Z,2.70
2022-11-26T08:41:52.036Z,2.80
2022-11-26T08:44:20.457Z,2.77
2022-11-26T08:46:48.045Z,2.70
2022-11-26T08:49:16.769Z,2.60
2022-11-26T08:51:44.476Z,2.70
2022-11-26T08:54:11.969Z,2.60
2022-11-26T08:56:39.469Z,2.70
2022-11-26T08:59:06.738Z,2.67
2022-11-26T09:03:38.334Z,2.60
2022-11-26T09:06:08.119Z,2.63
2022-11-26T09:08:55.883Z,2.70
2022-11-26T09:11:25.552Z,2.60
2022-11-26T09:13:53.371Z,2.70
2022-11-26T09:16:22.875Z,2.60
2022-11-26T09:18:51.632Z,2.70
2022-11-26T09:21:20.562Z,2.80
2022-11-26T09:23:47.550Z,2.60
2022-11-26T09:26:14.983Z,2.73
2022-11-26T09:28:41.914Z,2.70
2022-11-26T09:31:09.339Z,2.70
2022-11-26T09:33:36.745Z,2.70
2022-11-26T09:36:11.194Z,2.70
2022-11-26T09:38:39.372Z,2.63
2022-11-26T09:41:49.030Z,2.60
2022-11-26T09:44:38.231Z,2.70
2022-11-26T09:47:28.043Z,2.70
2022-11-26T09:50:13.681Z,2.60
2022-11-26T09:52:53.918Z,2.70
2022-11-26T09:55:40.347Z,2.60
2022-11-26T09:58:27.226Z,2.70
2022-11-26T10:00:59.180Z,2.70
2022-11-26T10:03:37.147Z,2.60
2022-11-26T10:06:13.618Z,2.70
2022-11-26T10:09:36.483Z,2.70
2022-11-26T10:16:11.053Z,2.60
2022-11-26T10:19:16.344Z,2.70
2022-11-26T10:21:59.110Z,2.60
2022-11-26T10:24:33.895Z,2.60
2022-11-26T10:27:16.594Z,2.63
2022-11-26T10:29:52.031Z,2.70
2022-11-26T10:32:38.052Z,2.60
2022-11-26T10:35:06.984Z,2.60
2022-11-26T10:37:34.393Z,2.60
2022-11-26T10:40:16.095Z,2.67
2022-11-26T10:42:55.330Z,2.60
2022-11-26T10:45:28.407Z,2.70
2022-11-26T10:48:28.621Z,2.67
2022-11-26T10:51:13.659Z,2.70
2022-11-26T10:54:00.856Z,2.60
2022-11-26T10:56:47.024Z,2.70
2022-11-26T10:59:30.987Z,2.60
2022-11-26T11:02:25.066Z,2.60
2022-11-26T11:04:56.567Z,2.70
2022-11-26T11:07:36.796Z,2.70
2022-11-26T11:10:21.802Z,2.60
2022-11-26T11:13:10.935Z,2.63
2022-11-26T11:15:40.316Z,2.70
2022-11-26T11:18:23.045Z,2.60
2022-11-26T11:21:01.765Z,2.70
2022-11-26T11:24:06.441Z,2.70
2022-11-26T11:26:25.204Z,2.67
2022-11-26T11:28:55.596Z,2.60
2022-11-26T11:31:28.644Z,2.70
2022-11-26T11:34:30.680Z,2.73
2022-11-26T11:37:14.859Z,2.70
2022-11-26T11:39:43.503Z,2.67
2022-11-26T11:42:40.264Z,2.70
2022-11-26T11:45:37.330Z,2.60
2022-11-26T11:48:47.695Z,2.70
2022-11-26T11:52:00.914Z,2.63
2022-11-26T11:54:45.965Z,2.60
2022-11-26T11:57:49.750Z,2.63
2022-11-26T12:00:43.462Z,2.60
2022-11-26T12:03:57.919Z,2.70
2022-11-26T12:06:43.867Z,2.60
2022-11-26T12:09:26.536Z,2.70
2022-11-26T12:12:23.631Z,2.60
2022-11-26T12:15:27.062Z,2.60
2022-11-26T12:17:58.903Z,2.60
2022-11-26T12:20:44.026Z,2.80
2022-11-26T12:23:57.771Z,2.70
2022-11-26T12:27:22.791Z,2.60
2022-11-26T12:30:20.502Z,2.60
2022-11-26T12:33:02.094Z,2.70
2022-11-26T12:35:36.063Z,2.67
2022-11-26T12:38:22.299Z,2.67
2022-11-26T12:41:17.386Z,2.60
2022-11-26T12:44:12.519Z,2.80
2022-11-26T12:47:25.482Z,2.70
2022-11-26T12:50:19.315Z,2.67
2022-11-26T12:53:54.391Z,2.67
2022-11-26T12:56:33.826Z,2.83
2022-11-26T12:59:27.407Z,2.70
2022-11-26T13:01:54.549Z,2.90
2022-11-26T13:04:43.022Z,2.87
2022-11-26T13:07:39.296Z,2.87
2022-11-26T13:10:37.410Z,2.70
2022-11-26T13:14:13.343Z,2.60
2022-11-26T13:16:59.623Z,2.70
2022-11-26T13:19:53.247Z,2.67
2022-11-26T13:23:13.083Z,2.70
2022-11-26T13:26:08.179Z,2.77
2022-11-26T13:29:14.780Z,2.60
2022-11-26T13:32:15.293Z,2.70
2022-11-26T13:35:38.551Z,2.83
2022-11-26T13:38:56.349Z,2.73
2022-11-26T13:42:05.379Z,2.60
2022-11-26T13:45:34.445Z,2.70
2022-11-26T13:48:29.997Z,2.67
2022-11-26T13:51:10.877Z,2.70
2022-11-26T13:54:01.223Z,2.60
2022-11-26T13:56:32.758Z,2.67
2022-11-26T13:59:17.428Z,2.57
2022-11-26T14:01:47.074Z,2.73
2022-11-26T14:04:24.441Z,2.67
2022-11-26T14:07:06.784Z,2.60
2022-11-26T14:09:43.363Z,2.63
2022-11-26T14:12:19.420Z,2.63
2022-11-26T14:14:52.238Z,2.87
2022-11-26T14:17:32.520Z,2.80
2022-11-26T14:20:04.052Z,3.00
2022-11-26T14:22:35.195Z,2.90
2022-11-26T14:25:11.532Z,2.73
2022-11-26T14:27:54.708Z,2.90
2022-11-26T14:30:26.404Z,2.70
2022-11-26T14:33:14.095Z,2.70
2022-11-26T14:35:55.394Z,2.77
2022-11-26T14:38:28.005Z,2.80
2022-11-26T14:41:00.820Z,2.73
2022-11-26T14:43:29.607Z,2.67
2022-11-26T14:46:16.516Z,2.60
2022-11-26T14:48:48.080Z,2.70
2022-11-26T14:51:26.668Z,2.70
2022-11-26T14:53:56.428Z,2.70
2022-11-26T14:56:25.725Z,2.70
2022-11-26T14:58:59.629Z,2.67
2022-11-26T15:01:29.202Z,2.70
2022-11-26T15:04:01.896Z,2.60
2022-11-26T15:06:42.314Z,2.60
2022-11-26T15:09:24.118Z,2.67
2022-11-26T15:12:12.701Z,2.70
2022-11-26T15:14:56.125Z,2.63
2022-11-26T15:17:27.681Z,2.70
2022-11-26T15:19:59.703Z,2.70
2022-11-26T15:22:44.311Z,2.70
2022-11-26T15:25:31.930Z,2.70
2022-11-26T15:28:06.848Z,2.80
2022-11-26T15:30:37.939Z,2.70
2022-11-26T15:33:14.325Z,2.80
2022-11-26T15:35:43.579Z,2.70
2022-11-26T15:38:17.926Z,2.70
2022-11-26T15:40:56.639Z,2.70
2022-11-26T15:43:33.174Z,2.60
2022-11-26T15:46:23.346Z,2.70
2022-11-26T15:48:59.074Z,2.70
2022-11-26T15:51:51.283Z,2.70
2022-11-26T15:55:10.839Z,2.70
2022-11-26T15:57:33.894Z,2.70
2022-11-26T16:00:40.427Z,2.73
2022-11-26T16:03:34.630Z,2.73
2022-11-26T16:06:04.973Z,2.70
2022-11-26T16:08:32.308Z,2.70
2022-11-26T16:11:17.621Z,2.77
2022-11-26T16:13:44.640Z,2.70
2022-11-26T16:16:25.771Z,2.80
2022-11-26T16:19:01.666Z,2.70
2022-11-26T16:21:33.027Z,2.70
2022-11-26T16:24:15.715Z,2.70
2022-11-26T16:27:23.191Z,2.70
2022-11-26T16:29:50.307Z,2.77
2022-11-26T16:32:19.425Z,2.70
2022-11-26T16:34:46.456Z,2.80
2022-11-26T16:37:34.024Z,2.70
2022-11-26T16:40:16.573Z,2.73
2022-11-26T16:42:43.579Z,2.70
2022-11-26T16:45:13.078Z,2.70
2022-11-26T16:47:53.777Z,2.73
2022-11-26T16:50:25.911Z,2.70
2022-11-26T16:52:55.046Z,2.70
2022-11-26T16:55:26.905Z,2.77
2022-11-26T16:57:58.775Z,2.70
2022-11-26T17:00:27.051Z,2.77
2022-11-26T17:02:54.395Z,2.70
2022-11-26T17:05:22.541Z,2.80
2022-11-26T17:07:56.019Z,2.80
2022-11-26T17:10:28.388Z,2.73
2022-11-26T17:12:56.237Z,2.70
2022-11-26T17:15:23.316Z,2.73
2022-11-26T17:17:54.576Z,2.70
2022-11-26T17:20:25.457Z,2.70
2022-11-26T17:22:53.036Z,2.70
2022-11-26T17:25:20.897Z,2.77
2022-11-26T17:27:48.677Z,2.70
2022-11-26T17:30:23.357Z,2.77
2022-11-26T17:32:51.637Z,2.80
2022-11-26T17:35:19.193Z,2.70
2022-11-26T17:37:46.708Z,2.70
2022-11-26T17:40:32.418Z,2.70
2022-11-26T17:42:59.417Z,2.67
2022-11-26T17:45:26.401Z,2.77
2022-11-26T17:47:53.417Z,2.70
2022-11-26T17:50:26.036Z,2.70
2022-11-26T17:52:54.760Z,2.77
2022-11-26T17:55:26.864Z,2.70
2022-11-26T17:57:55.303Z,2.80
2022-11-26T18:00:30.813Z,2.77
2022-11-26T18:02:58.773Z,2.70
2022-11-26T18:05:26.400Z,2.73
2022-11-26T18:07:54.031Z,2.77
2022-11-26T18:10:23.673Z,2.80
2022-11-26T18:12:54.381Z,2.70
2022-11-26T18:15:26.354Z,2.77
2022-11-26T18:17:55.571Z,2.67
2022-11-26T18:20:28.502Z,2.80
2022-11-26T18:22:59.798Z,2.77
2022-11-26T18:25:29.017Z,2.70
2022-11-26T18:27:56.453Z,2.80
2022-11-26T18:30:24.554Z,2.77
2022-11-26T18:32:52.259Z,2.70
2022-11-26T18:35:19.329Z,2.80
2022-11-26T18:37:46.303Z,2.73
2022-11-26T18:40:17.647Z,2.80
2022-11-26T18:42:45.099Z,2.73
2022-11-26T18:45:15.583Z,2.73
2022-11-26T18:47:43.035Z,2.70
2022-11-26T18:50:11.098Z,2.90
2022-11-26T18:52:38.714Z,2.70
2022-11-26T18:55:08.076Z,2.70
2022-11-26T18:57:35.630Z,2.70
2022-11-26T19:00:04.604Z,2.70
2022-11-26T19:02:31.708Z,2.70
2022-11-26T19:04:58.741Z,2.77
2022-11-26T19:07:25.965Z,2.70
2022-11-26T19:09:53.526Z,2.70
2022-11-26T19:12:20.520Z,2.70
2022-11-26T19:14:47.892Z,2.70
2022-11-26T19:17:15.094Z,2.77
2022-11-26T19:19:42.358Z,2.70
2022-11-26T19:22:09.435Z,2.70
2022-11-26T19:24:36.403Z,2.70
2022-11-26T19:27:03.397Z,2.77
2022-11-26T19:29:30.632Z,2.70
2022-11-26T19:31:57.587Z,2.70
2022-11-26T19:34:24.563Z,2.70
2022-11-26T19:36:56.469Z,2.70
2022-11-26T19:39:23.484Z,2.70
2022-11-26T19:41:50.437Z,2.70
2022-11-26T19:44:17.549Z,2.70
2022-11-26T19:46:44.640Z,2.70
2022-11-26T19:49:12.935Z,2.73
2022-11-26T19:51:40.416Z,2.77
2022-11-26T19:54:08.143Z,2.77
2022-11-26T19:56:36.365Z,2.80
2022-11-26T19:59:04.180Z,2.80
2022-11-26T20:01:34.169Z,2.80
2022-11-26T20:04:06.716Z,2.73
2022-11-26T20:06:36.091Z,2.70
2022-11-26T20:09:06.676Z,2.80
2022-11-26T20:11:38.875Z,2.80
2022-11-26T20:14:10.756Z,2.80
2022-11-26T20:16:43.854Z,2.77
2022-11-26T20:19:12.348Z,2.80
2022-11-26T20:21:39.701Z,2.87
2022-11-26T20:24:14.989Z,2.80
2022-11-26T20:26:45.497Z,2.80
2022-11-26T20:29:16.921Z,2.80
2022-11-26T20:31:49.065Z,2.83
2022-11-26T20:34:26.505Z,2.90
2022-11-26T20:36:54.225Z,2.83
2022-11-26T20:39:23.589Z,2.80
2022-11-26T20:41:51.160Z,2.80
2022-11-26T20:44:18.297Z,2.80
2022-11-26T20:46:45.401Z,2.83
2022-11-26T20:49:12.416Z,2.80
2022-11-26T20:51:40.033Z,2.83
2022-11-26T20:54:07.431Z,2.90
2022-11-26T20:56:34.406Z,2.90
2022-11-26T20:59:02.227Z,2.93
2022-11-26T21:01:31.324Z,2.90
2022-11-26T21:03:58.884Z,2.90
2022-11-26T21:06:31.728Z,2.90
2022-11-26T21:09:05.392Z,3.00
2022-11-26T21:11:33.103Z,3.00
2022-11-26T21:14:01.581Z,3.03
2022-11-26T21:16:30.148Z,2.97
2022-11-26T21:18:58.092Z,3.00
2022-11-26T21:21:28.147Z,3.10
2022-11-26T21:24:02.466Z,3.00
2022-11-26T21:26:33.446Z,3.03
2022-11-26T21:29:03.775Z,3.03
2022-11-26T21:31:32.705Z,3.03
2022-11-26T21:34:03.843Z,3.20
2022-11-26T21:36:35.299Z,3.10
2022-11-26T21:39:03.578Z,3.07
2022-11-26T21:41:33.275Z,3.20
2022-11-26T21:44:03.428Z,3.00
2022-11-26T21:46:37.542Z,3.10
2022-11-26T21:49:06.378Z,3.23
2022-11-26T21:51:33.326Z,3.10
2022-11-26T21:54:00.935Z,3.30
2022-11-26T21:56:31.919Z,3.17
2022-11-26T21:59:01.395Z,3.20
2022-11-26T22:01:36.143Z,3.13
2022-11-26T22:04:17.658Z,3.07
2022-11-26T22:06:47.907Z,3.07
2022-11-26T22:09:16.754Z,3.10
2022-11-26T22:11:45.713Z,3.13
2022-11-26T22:14:16.460Z,3.20
2022-11-26T22:16:43.663Z,3.20
2022-11-26T22:19:10.713Z,3.20
2022-11-26T22:21:41.623Z,3.20
2022-11-26T22:24:17.082Z,3.20
2022-11-26T22:26:45.161Z,3.20
2022-11-26T22:29:15.786Z,3.20
2022-11-26T22:31:44.148Z,3.23
2022-11-26T22:34:16.788Z,3.20
2022-11-26T22:36:46.084Z,3.20
2022-11-26T22:39:17.483Z,3.20
2022-11-26T22:41:47.024Z,3.20
2022-11-26T22:44:15.911Z,3.20
2022-11-26T22:46:43.079Z,3.20
2022-11-26T22:49:18.676Z,3.20
2022-11-26T22:51:47.242Z,3.23
2022-11-26T22:54:16.516Z,3.23
2022-11-26T22:56:43.517Z,3.20
2022-11-26T22:59:13.805Z,3.20
2022-11-26T23:01:40.970Z,3.27
2022-11-26T23:04:10.741Z,3.23
2022-11-26T23:06:39.228Z,3.20
2022-11-26T23:09:09.515Z,3.23
2022-11-26T23:11:41.062Z,3.20
2022-11-26T23:14:11.643Z,3.20
2022-11-26T23:16:41.942Z,3.20
2022-11-26T23:19:12.724Z,3.20
2022-11-26T23:21:42.571Z,3.23
2022-11-26T23:24:10.519Z,3.30
2022-11-26T23:26:40.212Z,3.27
2022-11-26T23:29:08.736Z,3.30
2022-11-26T23:31:43.157Z,3.40
2022-11-26T23:34:10.829Z,3.37
2022-11-26T23:36:38.732Z,3.40
2022-11-26T23:39:10.457Z,3.40
2022-11-26T23:41:37.535Z,3.40
2022-11-26T23:44:05.081Z,3.40
2022-11-26T23:46:35.181Z,3.30
2022-11-26T23:49:02.582Z,3.40
2022-11-26T23:51:32.507Z,3.40
2022-11-26T23:53:59.996Z,3.40
2022-11-26T23:56:33.614Z,3.43
2022-11-26T23:59:04.163Z,3.40
